Time;durP1;ratioP1;P1;durP2;ratioP2;P2;SDS_P1;SDS_P2;PMS_P1;PMS_P2;Temp;Humidity;BMP_temperature;BMP_pressure;BME280_temperature;BME280_humidity;BME280_pressure;Samples;Min_cycle;Max_cycle;Signal;HPM_P1;HPM_P2
2022/11/17 02:25:49;;;;;;;11.50;10.30;;;;;;;6.37;100.00;97891.28;6157899;23;20291;-80
2022/11/17 02:28:25;;;;;;;12.13;10.53;;;;;;;6.29;100.00;97884.47;6190582;23;20256;-80
2022/11/17 02:31:06;;;;;;;12.83;10.83;;;;;;;6.20;100.00;97877.91;6138740;23;20209;-80
2022/11/17 02:34:01;;;;;;;11.30;10.17;;;;;;;6.16;100.00;97874.06;6192682;23;20552;-81
2022/11/17 02:36:34;;;;;;;13.33;10.27;;;;;;;6.04;100.00;97876.75;6165950;23;20651;-81
2022/11/17 02:39:18;;;;;;;11.80;10.30;;;;;;;5.93;100.00;97871.44;6168271;23;20210;-81
2022/11/17 02:41:45;;;;;;;13.90;11.20;;;;;;;5.91;100.00;97879.66;6166061;23;20202;-80
2022/11/17 02:44:20;;;;;;;11.53;10.13;;;;;;;5.71;100.00;97879.97;6188973;23;20268;-80
2022/11/17 02:47:08;;;;;;;12.67;11.17;;;;;;;5.70;100.00;97878.34;6176112;23;20205;-83
2022/11/17 02:49:48;;;;;;;11.67;10.47;;;;;;;5.52;100.00;97864.34;6189182;23;20210;-82
2022/11/17 02:52:17;;;;;;;11.37;10.23;;;;;;;5.37;100.00;97851.53;6184825;23;20203;-81
2022/11/17 02:54:57;;;;;;;13.23;10.17;;;;;;;5.33;100.00;97855.66;6187795;23;20186;-82
2022/11/17 02:57:38;;;;;;;10.40;9.30;;;;;;;5.30;100.00;97870.22;6108551;23;20214;-82
2022/11/17 03:00:09;;;;;;;10.93;9.83;;;;;;;5.25;100.00;97883.38;6209108;23;20732;-81
2022/11/17 03:03:01;;;;;;;9.83;8.83;;;;;;;5.23;100.00;97882.78;6179541;23;20212;-82
2022/11/17 03:05:34;;;;;;;8.73;7.83;;;;;;;5.27;100.00;97889.25;6202003;23;20202;-81
2022/11/17 03:08:19;;;;;;;8.60;7.70;;;;;;;5.26;100.00;97881.53;6199906;23;20581;-81
2022/11/17 03:10:46;;;;;;;7.83;7.07;;;;;;;5.33;100.00;97891.00;6123859;23;20204;-81
2022/11/17 03:13:20;;;;;;;9.60;8.60;;;;;;;5.32;100.00;97883.25;6172868;23;20285;-82
2022/11/17 03:15:56;;;;;;;9.73;8.77;;;;;;;5.32;100.00;97881.41;6148514;23;20210;-81
2022/11/17 03:18:29;;;;;;;10.23;9.07;;;;;;;5.39;100.00;97891.13;6172493;23;20208;-81
2022/11/17 03:21:07;;;;;;;12.43;10.30;;;;;;;5.44;100.00;97886.75;6174050;23;20206;-81
2022/11/17 03:23:44;;;;;;;11.60;10.40;;;;;;;5.49;100.00;97897.50;6173642;23;20569;-81
2022/11/17 03:26:12;;;;;;;11.53;10.33;;;;;;;5.57;100.00;97891.03;6156443;23;20221;-81
2022/11/17 03:28:40;;;;;;;10.00;8.77;;;;;;;5.63;100.00;97884.81;6176751;23;20206;-82
2022/11/17 03:31:09;;;;;;;11.07;9.27;;;;;;;5.57;100.00;97881.22;6157813;23;20207;-82
2022/11/17 07:56:23;;;;;;;9.00;8.10;;;;;;;6.86;100.00;97911.94;6118976;23;20213;-79
2022/11/17 07:58:50;;;;;;;10.13;8.37;;;;;;;6.93;100.00;97904.63;6096317;23;20199;-79
2022/11/17 08:01:16;;;;;;;9.57;8.60;;;;;;;6.99;100.00;97909.03;6096231;23;20855;-79
2022/11/17 08:03:43;;;;;;;9.50;8.57;;;;;;;7.08;100.00;97898.78;6094630;23;20212;-79
2022/11/17 08:06:10;;;;;;;9.33;8.43;;;;;;;7.20;100.00;97904.03;6095992;23;20211;-79
2022/11/17 08:08:37;;;;;;;9.20;8.30;;;;;;;7.32;100.00;97918.13;6071269;23;20286;-79
2022/11/17 08:11:10;;;;;;;10.07;8.73;;;;;;;7.42;100.00;97918.28;6071404;23;20283;-79
2022/11/17 08:13:38;;;;;;;10.67;9.20;;;;;;;7.60;100.00;97918.06;6097028;23;20535;-79
2022/11/17 08:16:06;;;;;;;10.70;9.40;;;;;;;7.65;100.00;97923.47;6070147;23;20684;-79
2022/11/17 08:18:33;;;;;;;11.20;9.87;;;;;;;7.70;100.00;97926.22;6071286;23;20207;-79
2022/11/17 08:21:12;;;;;;;9.77;8.80;;;;;;;7.75;100.00;97912.97;6108525;23;20432;-79
2022/11/17 08:23:39;;;;;;;9.90;8.47;;;;;;;7.98;100.00;97920.78;6124209;23;20291;-79
2022/11/17 08:26:08;;;;;;;10.03;9.03;;;;;;;8.27;100.00;97916.13;6125321;23;20286;-79
2022/11/17 08:28:35;;;;;;;9.90;8.70;;;;;;;8.62;100.00;97923.03;6124676;23;20735;-79
2022/11/17 08:31:26;;;;;;;9.77;8.77;;;;;;;8.95;100.00;97916.75;6125894;23;20207;-79
2022/11/17 08:33:52;;;;;;;9.87;8.53;;;;;;;9.19;100.00;97908.19;6125730;23;20210;-79
2022/11/17 08:36:19;;;;;;;10.07;8.87;;;;;;;9.39;100.00;97912.94;6125366;23;20211;-79
2022/11/17 08:38:45;;;;;;;9.67;8.27;;;;;;;9.50;100.00;97919.19;6124733;23;20661;-79
2022/11/17 08:41:12;;;;;;;10.73;9.20;;;;;;;9.63;100.00;97919.56;6125865;23;20227;-79
2022/11/17 08:43:39;;;;;;;10.63;9.53;;;;;;;9.79;100.00;97928.53;6123989;23;20544;-79
2022/11/17 08:46:12;;;;;;;13.93;11.17;;;;;;;9.86;100.00;97928.28;6117552;23;20204;-79
2022/11/17 08:48:39;;;;;;;9.83;8.93;;;;;;;9.96;100.00;97915.81;6124267;23;20207;-80
2022/11/17 08:51:07;;;;;;;10.27;9.27;;;;;;;10.03;100.00;97915.59;6126706;23;20195;-80
2022/11/17 08:53:34;;;;;;;9.67;8.67;;;;;;;10.18;100.00;97933.63;6124401;23;20561;-80
2022/11/17 08:56:01;;;;;;;9.70;8.50;;;;;;;10.33;100.00;97933.72;6129780;23;20219;-80
2022/11/17 08:58:27;;;;;;;9.67;8.30;;;;;;;10.38;100.00;97929.22;6153812;23;20592;-79
2022/11/17 09:00:54;;;;;;;9.23;8.33;;;;;;;10.48;100.00;97928.47;6154127;23;20202;-81
2022/11/17 09:03:25;;;;;;;9.83;8.37;;;;;;;10.55;100.00;97927.16;6154996;23;20306;-80
2022/11/17 09:05:51;;;;;;;9.03;8.00;;;;;;;10.66;100.00;97922.66;6154983;23;20214;-80
2022/11/17 09:08:18;;;;;;;9.63;8.63;;;;;;;10.77;100.00;97918.16;6154437;23;20206;-80
2022/11/17 09:11:06;;;;;;;9.87;8.80;;;;;;;10.82;100.00;97921.69;6154787;23;20648;-80
2022/11/17 09:13:34;;;;;;;11.60;8.90;;;;;;;10.87;100.00;97928.94;6153202;23;20199;-79
2022/11/17 09:16:09;;;;;;;10.53;9.27;;;;;;;10.95;100.00;97921.19;6152852;23;20620;-80
2022/11/17 09:18:37;;;;;;;10.13;9.13;;;;;;;10.96;100.00;97930.03;6154856;23;20218;-80
2022/11/17 09:21:09;;;;;;;11.30;9.00;;;;;;;10.97;100.00;97919.03;6154460;23;20257;-79
2022/11/17 09:23:36;;;;;;;10.47;9.30;;;;;;;11.05;100.00;97915.06;6158772;23;20265;-80
2022/11/17 09:26:09;;;;;;;10.53;9.20;;;;;;;11.11;100.00;97903.25;6157613;23;20261;-80
2022/11/17 09:28:35;;;;;;;10.60;8.60;;;;;;;11.21;100.00;97897.13;6154806;23;20206;-80
2022/11/17 09:31:14;;;;;;;10.13;9.13;;;;;;;11.30;100.00;97890.16;6154394;23;20213;-80
2022/11/17 09:33:41;;;;;;;10.40;9.30;;;;;;;11.35;100.00;97890.16;6153744;23;20213;-80
2022/11/17 09:36:09;;;;;;;9.47;8.43;;;;;;;11.37;100.00;97888.03;6155965;23;20207;-81
2022/11/17 09:38:36;;;;;;;9.63;8.73;;;;;;;11.36;100.00;97889.91;6155105;23;20211;-80
2022/11/17 09:41:26;;;;;;;9.77;8.67;;;;;;;11.37;100.00;97891.53;6156560;23;20209;-80
2022/11/17 09:44:15;;;;;;;8.57;7.67;;;;;;;11.39;100.00;97893.91;6155227;23;20282;-80
2022/11/17 09:46:55;;;;;;;7.87;6.90;;;;;;;11.45;100.00;97899.03;6156775;23;20207;-80
2022/11/17 09:49:43;;;;;;;7.83;7.07;;;;;;;11.46;100.00;97908.69;6153519;23;20215;-80
2022/11/17 09:52:22;;;;;;;8.23;7.23;;;;;;;11.57;100.00;97908.72;6142182;23;20203;-80
2022/11/17 09:54:58;;;;;;;7.83;7.03;;;;;;;11.53;100.00;97912.97;6154995;23;20241;-82
2022/11/17 09:57:34;;;;;;;8.27;7.07;;;;;;;11.53;100.00;97905.72;6182383;23;20240;-81
2022/11/17 10:00:13;;;;;;;8.00;7.20;;;;;;;11.51;100.00;97899.84;6170075;23;20203;-79
2022/11/17 10:02:41;;;;;;;8.07;7.23;;;;;;;11.49;100.00;97902.78;6186120;23;20203;-81
2022/11/17 10:05:13;;;;;;;8.67;7.87;;;;;;;11.51;100.00;97891.00;6159808;23;20229;-81
2022/11/17 10:07:46;;;;;;;7.80;7.10;;;;;;;11.53;100.00;97891.53;6185804;23;20209;-81
2022/11/17 10:10:20;;;;;;;6.90;6.20;;;;;;;11.61;100.00;97885.66;6159258;23;20215;-80
2022/11/17 10:12:51;;;;;;;7.57;6.87;;;;;;;11.59;100.00;97887.78;6159850;23;20205;-80
2022/11/17 10:15:27;;;;;;;8.17;7.07;;;;;;;11.54;100.00;97885.91;6159567;23;20206;-81
2022/11/17 10:17:54;;;;;;;7.90;7.20;;;;;;;11.58;100.00;97878.91;6159450;23;20206;-80
2022/11/17 10:20:20;;;;;;;7.87;7.07;;;;;;;11.50;100.00;97882.16;6159038;23;20293;-81
2022/11/17 10:22:47;;;;;;;8.03;7.23;;;;;;;11.41;100.00;97879.19;6186629;23;20278;-79
2022/11/17 10:25:33;;;;;;;8.40;7.60;;;;;;;11.40;100.00;97882.13;6186328;23;20201;-80
2022/11/17 10:28:00;;;;;;;8.87;7.97;;;;;;;11.49;100.00;97875.16;6161286;23;20191;-80
2022/11/17 10:30:27;;;;;;;9.60;8.67;;;;;;;11.37;100.00;97878.13;6184269;23;20208;-80
2022/11/17 10:32:55;;;;;;;6.80;6.20;;;;;;;11.39;100.00;97878.66;6185968;23;20573;-80
2022/11/17 10:35:29;;;;;;;6.80;6.20;;;;;;;11.38;100.00;97884.28;6186199;23;20209;-81
2022/11/17 10:38:05;;;;;;;7.13;6.43;;;;;;;11.40;100.00;97885.63;6160792;23;20201;-80
2022/11/17 10:40:48;;;;;;;7.23;6.53;;;;;;;11.24;100.00;97875.97;6186478;23;20209;-80
2022/11/17 10:43:16;;;;;;;7.40;6.70;;;;;;;11.32;100.00;97883.47;6159895;23;20728;-81
2022/11/17 10:45:43;;;;;;;7.93;6.30;;;;;;;11.25;100.00;97882.91;6185944;23;20214;-81
2022/11/17 10:48:24;;;;;;;7.40;6.70;;;;;;;11.20;100.00;97896.31;6185818;23;20212;-80
2022/11/17 10:51:18;;;;;;;7.33;6.63;;;;;;;11.18;100.00;97889.63;6158530;23;20245;-80
2022/11/17 10:54:08;;;;;;;7.87;7.03;;;;;;;11.22;100.00;97878.09;6186628;23;20165;-80
2022/11/17 10:56:40;;;;;;;7.50;6.70;;;;;;;11.33;100.00;97890.47;6185610;23;20260;-81
2022/11/17 10:59:29;;;;;;;7.47;6.73;;;;;;;11.16;100.00;97889.06;6186254;23;20658;-81
2022/11/17 11:01:56;;;;;;;7.17;6.47;;;;;;;11.35;100.00;97885.63;6160003;23;20233;-81
2022/11/17 11:04:40;;;;;;;7.93;7.13;;;;;;;11.57;100.00;97876.53;6183941;23;20202;-80
2022/11/17 11:07:21;;;;;;;9.00;8.10;;;;;;;11.71;100.00;97866.88;6186204;23;20213;-80
2022/11/17 11:10:01;;;;;;;7.67;6.97;;;;;;;11.54;100.00;97877.84;6159794;23;20210;-80
2022/11/17 11:12:40;;;;;;;8.03;7.10;;;;;;;11.56;100.00;97882.97;6183960;23;20209;-80
2022/11/17 11:15:14;;;;;;;7.57;6.87;;;;;;;11.00;100.00;97882.88;6160003;23;20261;-79
2022/11/17 11:17:40;;;;;;;7.83;7.13;;;;;;;10.32;100.00;97878.59;6160201;23;20206;-80
2022/11/17 11:20:12;;;;;;;8.80;7.83;;;;;;;10.72;100.00;97886.00;6186460;23;20666;-80
2022/11/17 11:22:54;;;;;;;8.13;7.33;;;;;;;10.74;100.00;97875.81;6159887;23;20221;-80
2022/11/17 11:25:27;;;;;;;8.40;7.57;;;;;;;11.01;100.00;97887.97;6160284;23;20210;-80
2022/11/17 11:28:32;;;;;;;8.87;7.97;;;;;;;10.96;100.00;97893.28;6185637;23;20273;-80
2022/11/17 11:31:11;;;;;;;9.13;8.23;;;;;;;10.78;100.00;97895.69;6160502;23;20328;-80
2022/11/17 11:33:40;;;;;;;9.03;8.17;;;;;;;10.59;100.00;97916.75;6187105;23;20209;-80
2022/11/17 11:36:08;;;;;;;9.70;8.70;;;;;;;10.73;100.00;97919.75;6160681;23;20209;-80
2022/11/17 11:39:02;;;;;;;9.33;8.43;;;;;;;10.56;100.00;97902.00;6186093;23;20198;-81
2022/11/17 11:41:38;;;;;;;9.40;8.13;;;;;;;10.31;100.00;97893.06;6161609;23;20221;-81
2022/11/17 11:44:30;;;;;;;9.73;8.10;;;;;;;10.33;100.00;97886.38;6160345;23;20217;-79
2022/11/17 11:47:21;;;;;;;12.27;8.73;;;;;;;10.19;100.00;97884.41;6187048;23;20206;-79
2022/11/17 11:49:51;;;;;;;9.20;8.30;;;;;;;9.82;100.00;97892.44;6186870;23;20221;-80
2022/11/17 11:52:21;;;;;;;12.03;10.80;;;;;;;9.56;100.00;97889.56;6158747;23;20659;-80
2022/11/17 11:55:20;;;;;;;11.03;8.40;;;;;;;9.78;100.00;97907.38;6160733;23;20208;-79
2022/11/17 11:57:54;;;;;;;9.47;8.57;;;;;;;9.67;100.00;97912.63;6159817;23;20210;-80
2022/11/17 12:00:20;;;;;;;8.90;8.10;;;;;;;9.59;100.00;97909.63;6135334;23;21991;-80
2022/11/17 12:03:09;;;;;;;9.43;8.53;;;;;;;9.73;100.00;97929.53;6186929;23;20206;-80
2022/11/17 12:05:40;;;;;;;9.50;8.50;;;;;;;9.99;100.00;97922.50;6186773;23;20233;-80
2022/11/17 12:08:09;;;;;;;9.10;8.20;;;;;;;9.82;100.00;97925.34;6186561;23;20213;-79
2022/11/17 12:11:58;;;;;;;10.67;8.40;;;;;;;9.83;100.00;97926.16;6160320;23;20682;-79
2022/11/17 12:13:53;;;;;;;9.23;8.33;;;;;;;10.07;100.00;97928.22;6163414;23;20206;-79
2022/11/17 12:16:35;;;;;;;11.53;10.30;;;;;;;9.79;100.00;97941.09;6159858;23;20278;-80
2022/11/17 12:19:41;;;;;;;12.83;11.53;;;;;;;9.50;100.00;97948.59;6161140;23;20212;-80
2022/11/17 12:22:09;;;;;;;13.03;11.30;;;;;;;9.64;100.00;97958.63;6185808;23;20228;-79
2022/11/17 12:24:39;;;;;;;14.00;11.73;;;;;;;9.31;100.00;97974.84;6160203;23;20228;-80
2022/11/17 12:27:30;;;;;;;12.17;10.93;;;;;;;9.48;100.00;98001.47;6158693;23;20206;-79
2022/11/17 12:29:56;;;;;;;14.47;11.47;;;;;;;9.37;100.00;97994.44;6144408;23;20175;-79
2022/11/17 12:32:42;;;;;;;13.70;11.40;;;;;;;9.34;100.00;97998.41;6186883;23;20198;-79
2022/11/17 12:35:24;;;;;;;12.93;11.63;;;;;;;9.15;100.00;97991.75;6186729;23;20276;-80
2022/11/17 12:38:21;;;;;;;13.47;11.63;;;;;;;9.19;100.00;97982.22;6187310;23;20206;-80
2022/11/17 12:40:49;;;;;;;13.13;11.70;;;;;;;9.20;100.00;97967.78;6186331;23;20213;-80
2022/11/17 12:43:19;;;;;;;14.03;12.13;;;;;;;8.84;100.00;97964.72;6186983;23;20225;-80
2022/11/17 12:45:58;;;;;;;15.13;12.30;;;;;;;8.83;100.00;97970.28;6186602;23;20206;-80
2022/11/17 12:48:28;;;;;;;15.67;11.37;;;;;;;8.99;100.00;97971.28;6185746;23;20717;-80
2022/11/17 12:51:12;;;;;;;15.37;12.33;;;;;;;8.92;100.00;97958.09;6186221;23;20209;-79
2022/11/17 12:53:54;;;;;;;15.73;13.00;;;;;;;8.82;100.00;97960.66;6184263;23;20265;-80
2022/11/17 12:56:48;;;;;;;12.60;11.30;;;;;;;8.80;100.00;97960.13;6185635;23;20296;-79
2022/11/17 12:59:33;;;;;;;14.53;12.17;;;;;;;8.64;100.00;97959.09;6160283;23;20214;-80
2022/11/17 13:02:26;;;;;;;16.63;14.93;;;;;;;8.44;100.00;97950.03;6170873;23;20259;-80
2022/11/17 13:04:57;;;;;;;14.80;13.30;;;;;;;8.39;100.00;97948.91;6134150;23;20202;-80
2022/11/17 13:07:25;;;;;;;15.30;12.77;;;;;;;8.40;100.00;97933.69;6157986;23;20245;-79
2022/11/17 13:09:55;;;;;;;14.23;12.70;;;;;;;8.57;100.00;97917.63;6183964;23;20209;-79
2022/11/17 13:12:27;;;;;;;15.30;13.17;;;;;;;8.66;100.00;97910.81;6185619;23;20201;-79
2022/11/17 13:15:01;;;;;;;14.57;12.97;;;;;;;8.48;100.00;97903.91;6160447;23;20226;-80
2022/11/17 13:17:33;;;;;;;14.57;12.17;;;;;;;8.58;100.00;97903.25;6184296;23;20289;-79
2022/11/17 13:20:02;;;;;;;13.70;12.30;;;;;;;8.63;100.00;97890.75;6185720;23;20210;-79
2022/11/17 13:22:29;;;;;;;13.87;12.00;;;;;;;8.48;100.00;97885.25;6184885;23;20205;-79
2022/11/17 13:24:56;;;;;;;13.43;11.47;;;;;;;8.57;100.00;97890.94;6159084;23;20205;-79
2022/11/17 13:27:24;;;;;;;14.43;11.90;;;;;;;8.76;100.00;97890.38;6185083;23;20213;-80
2022/11/17 13:29:52;;;;;;;12.67;10.87;;;;;;;8.92;100.00;97888.66;6184938;23;20212;-79
2022/11/17 13:32:21;;;;;;;12.13;10.93;;;;;;;9.03;100.00;97885.06;6158742;23;20205;-79
2022/11/17 13:34:56;;;;;;;16.13;11.57;;;;;;;9.15;100.00;97888.38;6135710;23;20205;-80
2022/11/17 13:37:28;;;;;;;12.43;10.53;;;;;;;9.26;100.00;97899.97;6160255;23;20787;-79
2022/11/17 13:40:18;;;;;;;15.23;11.90;;;;;;;9.47;100.00;97891.06;6123351;23;20226;-80
2022/11/17 13:42:45;;;;;;;12.23;10.93;;;;;;;9.50;100.00;97884.44;6185073;23;20206;-79
2022/11/17 13:45:15;;;;;;;13.90;12.50;;;;;;;9.56;100.00;97878.88;6185288;23;20164;-80
2022/11/17 13:47:45;;;;;;;17.23;15.63;;;;;;;9.66;100.00;97870.91;6184734;23;20210;-80
2022/11/17 13:50:22;;;;;;;14.80;13.20;;;;;;;9.71;100.00;97875.50;6183809;23;20225;-79
2022/11/17 13:52:54;;;;;;;12.63;11.27;;;;;;;9.77;100.00;97879.00;6185299;23;20198;-80
2022/11/17 13:55:22;;;;;;;12.50;11.30;;;;;;;9.57;100.00;97880.47;6133770;23;20213;-80
2022/11/17 13:57:57;;;;;;;12.70;11.20;;;;;;;9.64;100.00;97875.72;6158777;23;20210;-80
2022/11/17 14:00:25;;;;;;;12.80;11.43;;;;;;;9.49;100.00;97886.28;6184766;23;20256;-80
2022/11/17 14:03:02;;;;;;;12.53;11.23;;;;;;;9.32;100.00;97880.28;6158891;23;20210;-80
2022/11/17 14:05:30;;;;;;;13.63;11.87;;;;;;;9.31;100.00;97885.84;6157110;23;20212;-80
2022/11/17 14:08:09;;;;;;;14.33;11.53;;;;;;;9.36;100.00;97897.41;6158686;23;20198;-80
2022/11/17 14:10:36;;;;;;;13.03;10.93;;;;;;;9.18;100.00;97905.78;6184497;23;20208;-79
2022/11/17 14:13:03;;;;;;;14.00;11.03;;;;;;;9.15;100.00;97906.28;6158721;23;20587;-79
2022/11/17 14:15:33;;;;;;;16.60;14.00;;;;;;;9.05;100.00;97900.84;6184595;23;20198;-79
2022/11/17 14:18:02;;;;;;;14.57;12.23;;;;;;;9.02;100.00;97915.50;6158691;23;20293;-79
2022/11/17 14:20:31;;;;;;;14.63;12.20;;;;;;;8.95;100.00;97916.75;6159615;23;20202;-80
2022/11/17 14:23:12;;;;;;;14.40;12.90;;;;;;;9.00;100.00;97914.16;6196186;23;20281;-82
2022/11/17 14:25:44;;;;;;;14.13;11.70;;;;;;;8.91;100.00;97915.66;6162488;23;20591;-81
2022/11/17 14:28:21;;;;;;;13.30;10.70;;;;;;;8.94;100.00;97920.47;6155884;23;20202;-82
2022/11/17 14:30:50;;;;;;;13.60;11.70;;;;;;;8.84;100.00;97913.97;6179960;23;20208;-81
2022/11/17 14:33:28;;;;;;;14.23;12.73;;;;;;;8.87;100.00;97915.31;6152222;23;20214;-81
2022/11/17 14:36:17;;;;;;;;;;;;;;;;;;;;;
2022/11/17 14:43:17;;;;;;;;;;;;;;;;;;;;;
2022/11/17 14:45:54;;;;;;;23.43;16.20;;;;;;;8.04;100.00;97908.34;6003567;23;20206;-80
2022/11/17 14:48:21;;;;;;;17.10;13.73;;;;;;;8.03;100.00;97916.59;6037209;23;20215;-80
2022/11/17 14:51:01;;;;;;;22.83;16.23;;;;;;;7.82;100.00;97923.47;6039746;23;20252;-81
2022/11/17 14:53:30;;;;;;;32.97;21.47;;;;;;;7.86;100.00;97936.09;6043691;23;20563;-81
2022/11/17 14:56:21;;;;;;;28.03;18.47;;;;;;;7.76;100.00;97940.44;6175146;23;20236;-80
2022/11/17 14:58:53;;;;;;;25.87;17.53;;;;;;;7.72;100.00;97955.31;6136586;23;20276;-80
2022/11/17 15:01:27;;;;;;;22.53;15.53;;;;;;;7.76;100.00;97964.44;6163534;23;20233;-80
2022/11/17 15:03:55;;;;;;;17.03;14.03;;;;;;;7.84;100.00;97964.84;6163101;23;20288;-80
2022/11/17 15:06:22;;;;;;;14.43;12.93;;;;;;;8.04;100.00;97967.03;6179166;23;20212;-81
2022/11/17 15:09:00;;;;;;;16.57;14.93;;;;;;;7.89;100.00;97974.78;6186405;23;20264;-80
2022/11/17 15:11:30;;;;;;;16.63;13.47;;;;;;;7.84;100.00;97977.34;6188655;23;20218;-80
2022/11/17 15:14:05;;;;;;;27.73;16.57;;;;;;;7.78;100.00;97967.69;6138960;23;20198;-80
2022/11/17 15:16:32;;;;;;;22.17;15.73;;;;;;;7.61;100.00;97962.31;6162763;23;20190;-80
2022/11/17 15:19:01;;;;;;;13.07;11.47;;;;;;;7.53;100.00;97963.53;6173773;23;20198;-80
2022/11/17 15:21:27;;;;;;;12.73;11.33;;;;;;;7.68;100.00;97970.16;6187607;23;20521;-81
2022/11/17 15:23:54;;;;;;;11.77;10.57;;;;;;;7.83;100.00;97973.91;6188114;23;20744;-81
2022/11/17 15:26:23;;;;;;;13.23;11.93;;;;;;;7.81;100.00;97976.00;6185879;23;20289;-80
2022/11/17 15:28:50;;;;;;;13.00;11.73;;;;;;;7.82;100.00;97976.81;6188293;23;20205;-81
2022/11/17 15:31:18;;;;;;;14.07;12.80;;;;;;;7.65;100.00;97976.00;6188435;23;20277;-80
2022/11/17 15:33:46;;;;;;;14.30;12.90;;;;;;;7.62;100.00;97977.25;6138736;23;20206;-80
2022/11/17 15:36:15;;;;;;;13.27;12.07;;;;;;;7.63;100.00;97965.56;6189579;23;20207;-80
2022/11/17 15:38:42;;;;;;;11.90;10.80;;;;;;;7.64;100.00;97961.03;6163868;23;20202;-80
2022/11/17 15:41:10;;;;;;;11.57;10.47;;;;;;;7.65;100.00;97960.00;6189284;23;20205;-80
2022/11/17 15:43:39;;;;;;;11.63;10.53;;;;;;;7.70;100.00;97960.09;6161970;23;20217;-80
2022/11/17 15:46:10;;;;;;;13.13;11.83;;;;;;;7.75;100.00;97968.13;6161641;23;20210;-80
2022/11/17 15:48:41;;;;;;;12.97;11.70;;;;;;;7.78;100.00;97970.34;6162159;23;20284;-81
2022/11/17 15:51:15;;;;;;;13.67;12.37;;;;;;;7.82;100.00;97964.28;6188311;23;20205;-80
2022/11/17 15:53:43;;;;;;;16.07;14.47;;;;;;;7.86;100.00;97960.09;6162584;23;20639;-80
2022/11/17 15:56:12;;;;;;;17.73;15.93;;;;;;;7.91;100.00;97962.03;6136954;23;20667;-81
2022/11/17 15:58:40;;;;;;;14.40;13.00;;;;;;;8.01;100.00;97956.84;6162114;23;20202;-80
2022/11/17 16:01:10;;;;;;;15.20;13.53;;;;;;;8.07;100.00;97947.06;6188811;23;20569;-80
2022/11/17 16:03:39;;;;;;;13.17;11.87;;;;;;;7.87;100.00;97948.38;6188742;23;20230;-80
2022/11/17 16:06:06;;;;;;;12.93;11.63;;;;;;;7.73;100.00;97952.41;6161353;23;20198;-80
2022/11/17 16:08:33;;;;;;;13.07;11.67;;;;;;;7.70;100.00;97971.53;6188022;23;20210;-80
2022/11/17 16:11:00;;;;;;;12.33;11.13;;;;;;;7.65;100.00;97963.44;6188893;23;20544;-80
2022/11/17 16:13:26;;;;;;;12.33;11.13;;;;;;;7.70;100.00;97962.75;6188577;23;20206;-80
2022/11/17 16:15:54;;;;;;;11.93;10.83;;;;;;;7.73;100.00;97964.91;6162721;23;20202;-80
2022/11/17 16:18:21;;;;;;;11.93;10.80;;;;;;;7.72;100.00;97961.44;6188165;23;20210;-80
2022/11/17 16:20:47;;;;;;;11.97;10.77;;;;;;;7.76;100.00;97965.25;6162324;23;20301;-81
2022/11/17 16:23:14;;;;;;;12.07;10.87;;;;;;;7.58;100.00;97970.00;6187938;23;20210;-80
2022/11/17 16:25:42;;;;;;;12.07;10.87;;;;;;;7.60;100.00;97973.25;6187178;23;20210;-80
2022/11/17 16:28:09;;;;;;;11.23;10.23;;;;;;;7.66;100.00;97970.41;6160581;23;20677;-80
2022/11/17 16:30:36;;;;;;;11.63;10.43;;;;;;;7.66;100.00;97962.41;6162355;23;20237;-80
2022/11/17 16:33:08;;;;;;;10.60;9.60;;;;;;;7.68;100.00;97957.66;6187428;23;20202;-81
2022/11/17 16:35:35;;;;;;;11.10;10.00;;;;;;;7.87;100.00;97961.69;6187342;23;20206;-80
2022/11/17 16:38:01;;;;;;;12.33;11.23;;;;;;;7.78;100.00;97967.69;6182019;23;20213;-80
2022/11/17 16:40:29;;;;;;;11.40;10.20;;;;;;;7.66;100.00;97969.59;6187466;23;20201;-80
2022/11/17 16:42:59;;;;;;;10.33;9.33;;;;;;;7.62;100.00;97963.13;6161012;23;20206;-81
2022/11/17 16:45:26;;;;;;;11.23;10.13;;;;;;;7.68;100.00;97959.50;6187544;23;20202;-80
2022/11/17 16:47:52;;;;;;;14.13;12.63;;;;;;;7.62;100.00;97963.94;6185918;23;20245;-80
2022/11/17 16:50:19;;;;;;;12.57;11.33;;;;;;;7.63;100.00;97957.56;6184973;23;20182;-81
2022/11/17 16:52:45;;;;;;;10.77;9.77;;;;;;;7.64;100.00;97961.03;6188056;23;20264;-80
2022/11/17 16:55:12;;;;;;;11.17;10.07;;;;;;;7.53;100.00;97960.88;6187726;23;20205;-81
2022/11/17 16:57:39;;;;;;;12.63;10.80;;;;;;;7.52;100.00;97953.91;6187404;23;20261;-80
2022/11/17 17:00:06;;;;;;;11.40;10.23;;;;;;;7.48;100.00;97959.97;6187165;23;20304;-80
2022/11/17 17:02:33;;;;;;;11.57;10.07;;;;;;;7.46;100.00;97962.88;6188311;23;20587;-81
2022/11/17 17:05:00;;;;;;;10.67;9.67;;;;;;;7.43;100.00;97957.19;6189698;23;20206;-81
2022/11/17 17:07:26;;;;;;;12.05;10.90;;;;;;;7.47;100.00;97961.81;6163518;23;20396;-81
2022/11/17 17:09:53;;;;;;;13.00;11.70;;;;;;;7.46;100.00;97965.53;6191224;23;20206;-80
2022/11/17 17:12:20;;;;;;;14.00;12.07;;;;;;;7.54;100.00;97967.00;6191126;23;20206;-80
2022/11/17 17:14:47;;;;;;;15.77;14.27;;;;;;;7.55;100.00;97962.47;6191701;23;20225;-80
2022/11/17 17:17:13;;;;;;;14.30;12.80;;;;;;;7.57;100.00;97945.19;6191741;23;20198;-81
2022/11/17 17:19:40;;;;;;;14.90;13.20;;;;;;;7.57;100.00;97947.03;6190083;23;20212;-80
2022/11/17 17:22:06;;;;;;;21.07;17.87;;;;;;;7.55;100.00;97944.63;6161482;23;20202;-80
2022/11/17 17:24:33;;;;;;;22.00;16.83;;;;;;;7.52;100.00;97951.25;6187952;23;20202;-80
2022/11/17 17:27:00;;;;;;;19.40;15.07;;;;;;;7.52;100.00;97931.78;6187844;23;20200;-80
2022/11/17 17:29:26;;;;;;;15.87;14.13;;;;;;;7.52;100.00;97907.78;6188582;23;20555;-81
2022/11/17 17:31:53;;;;;;;17.40;14.33;;;;;;;7.39;100.00;97918.78;6189068;23;20209;-80
2022/11/17 17:34:19;;;;;;;16.40;14.80;;;;;;;7.41;100.00;97920.16;6173936;23;20206;-80
2022/11/17 17:36:46;;;;;;;16.60;15.00;;;;;;;7.36;100.00;97916.59;6188709;23;20202;-80
2022/11/17 17:39:16;;;;;;;26.03;23.33;;;;;;;7.33;100.00;97917.06;6189820;23;20213;-80
2022/11/17 17:41:44;;;;;;;18.27;16.37;;;;;;;7.31;100.00;97914.66;6164480;23;20205;-81
2022/11/17 17:44:16;;;;;;;18.93;16.93;;;;;;;7.21;100.00;97906.47;6188708;23;20210;-81
2022/11/17 17:46:43;;;;;;;16.10;14.40;;;;;;;7.13;100.00;97904.22;6188128;23;20233;-80
2022/11/17 17:49:10;;;;;;;16.17;13.33;;;;;;;7.04;100.00;97898.47;6161325;23;20205;-80
2022/11/17 17:51:40;;;;;;;15.77;14.27;;;;;;;6.99;100.00;97911.69;6162068;23;20206;-80
2022/11/17 17:54:12;;;;;;;17.37;14.70;;;;;;;7.04;100.00;97945.59;6188452;23;20208;-80
2022/11/17 17:56:39;;;;;;;16.27;14.67;;;;;;;6.86;100.00;97930.56;6163918;23;20202;-80
2022/11/17 17:59:06;;;;;;;16.03;13.70;;;;;;;6.83;100.00;97920.41;6190062;23;20209;-80
2022/11/17 18:01:32;;;;;;;14.87;13.33;;;;;;;6.77;100.00;97920.53;6163836;23;20210;-81
2022/11/17 18:04:03;;;;;;;16.07;13.60;;;;;;;6.76;100.00;97913.63;6189647;23;20210;-81
2022/11/17 18:06:37;;;;;;;14.80;13.30;;;;;;;6.78;100.00;97893.69;6188275;23;20234;-80
2022/11/17 18:09:05;;;;;;;14.13;12.70;;;;;;;6.68;100.00;97921.94;6114606;23;20213;-80
2022/11/17 18:11:32;;;;;;;14.73;13.23;;;;;;;6.64;100.00;97922.44;6163517;23;20218;-80
2022/11/17 18:13:59;;;;;;;15.57;13.97;;;;;;;6.62;100.00;97923.72;6189760;23;20217;-81
2022/11/17 18:16:31;;;;;;;16.13;13.80;;;;;;;6.61;100.00;97922.09;6190006;23;20201;-81
2022/11/17 18:19:02;;;;;;;15.00;13.50;;;;;;;6.55;100.00;97928.34;6190072;23;20226;-80
2022/11/17 18:21:29;;;;;;;15.97;14.27;;;;;;;6.58;100.00;97911.91;6163668;23;20285;-81
2022/11/17 18:23:57;;;;;;;16.20;14.50;;;;;;;6.63;100.00;97910.16;6188491;23;20670;-80
2022/11/17 18:26:25;;;;;;;15.53;13.90;;;;;;;6.59;100.00;97924.19;6158944;23;20209;-80
2022/11/17 18:28:57;;;;;;;17.07;15.27;;;;;;;6.53;100.00;97917.16;6162574;23;20543;-80
2022/11/17 18:31:26;;;;;;;15.30;13.73;;;;;;;6.49;100.00;97914.13;6189255;23;20206;-80
2022/11/17 18:33:57;;;;;;;16.40;13.83;;;;;;;6.51;100.00;97922.69;6189318;23;20205;-80
2022/11/17 18:36:25;;;;;;;15.20;13.60;;;;;;;6.53;100.00;97914.50;6164624;23;20213;-80
2022/11/17 18:38:52;;;;;;;14.77;13.23;;;;;;;6.54;100.00;97908.91;6164277;23;20198;-81
2022/11/17 18:41:20;;;;;;;14.67;13.27;;;;;;;6.48;100.00;97906.41;6163627;23;20268;-81